createdAt,value
2019-02-20T00:02:19.374Z,19.83
2019-02-20T00:04:51.265Z,15.63
2019-02-20T00:07:25.799Z,19.33
2019-02-20T00:09:57.954Z,19.60
2019-02-20T00:12:29.923Z,16.00
2019-02-20T00:15:02.004Z,20.83
2019-02-20T00:17:34.744Z,16.47
2019-02-20T00:20:07.178Z,20.13
2019-02-20T00:22:40.427Z,18.37
2019-02-20T00:25:13.024Z,21.67
2019-02-20T00:27:45.401Z,19.53
2019-02-20T00:30:17.857Z,19.07
2019-02-20T00:32:49.708Z,16.17
2019-02-20T00:35:21.525Z,17.97
2019-02-20T00:37:53.299Z,16.60
2019-02-20T00:40:25.157Z,19.17
2019-02-20T00:42:57.042Z,16.57
2019-02-20T00:45:42.313Z,17.40
2019-02-20T00:48:38.679Z,15.47
2019-02-20T00:51:38.516Z,16.07
2019-02-20T00:54:10.287Z,15.40
2019-02-20T00:56:42.332Z,13.23
2019-02-20T00:59:14.137Z,16.70
2019-02-20T01:01:46.181Z,17.13
2019-02-20T01:04:17.983Z,15.63
2019-02-20T01:06:49.864Z,17.03
2019-02-20T01:09:21.753Z,17.83
2019-02-20T01:11:53.800Z,18.03
2019-02-20T01:14:25.554Z,18.30
2019-02-20T01:16:57.625Z,17.90
2019-02-20T01:19:29.417Z,16.77
2019-02-20T01:22:01.350Z,14.97
2019-02-20T01:24:33.163Z,15.63
2019-02-20T01:27:04.974Z,18.70
2019-02-20T01:29:36.999Z,16.60
2019-02-20T01:32:08.793Z,16.70
2019-02-20T01:34:41.571Z,17.80
2019-02-20T01:37:13.371Z,17.57
2019-02-20T01:39:45.128Z,18.87
2019-02-20T01:42:16.994Z,15.87
2019-02-20T01:44:50.331Z,19.83
2019-02-20T01:47:22.540Z,18.87
2019-02-20T01:49:54.423Z,19.53
2019-02-20T01:52:26.518Z,17.47
2019-02-20T01:54:58.325Z,15.57
2019-02-20T01:57:30.125Z,16.00
2019-02-20T02:00:02.127Z,17.07
2019-02-20T02:02:34.510Z,15.83
2019-02-20T02:05:14.743Z,17.07
2019-02-20T02:07:41.003Z,17.80
2019-02-20T02:10:12.882Z,16.33
2019-02-20T02:12:45.234Z,14.77
2019-02-20T02:15:20.506Z,14.33
2019-02-20T02:17:51.222Z,14.47
2019-02-20T02:20:23.009Z,16.37
2019-02-20T02:22:55.032Z,16.47
2019-02-20T02:25:26.831Z,14.80
2019-02-20T02:27:58.857Z,16.73
2019-02-20T02:30:30.873Z,15.13
2019-02-20T02:33:02.784Z,16.03
2019-02-20T02:35:34.563Z,12.47
2019-02-20T02:38:06.600Z,14.50
2019-02-20T02:40:38.368Z,15.00
2019-02-20T02:43:10.159Z,14.60
2019-02-20T02:45:41.995Z,12.73
2019-02-20T02:48:13.958Z,14.03
2019-02-20T02:50:45.738Z,14.87
2019-02-20T02:53:17.592Z,15.77
2019-02-20T02:55:49.380Z,13.17
2019-02-20T02:58:21.164Z,15.10
2019-02-20T03:00:54.311Z,15.27
2019-02-20T03:03:27.985Z,12.77
2019-02-20T03:05:59.748Z,9.83
2019-02-20T03:08:31.730Z,11.93
2019-02-20T03:11:03.500Z,15.47
2019-02-20T03:13:35.494Z,15.50
2019-02-20T03:16:07.605Z,14.10
2019-02-20T03:18:39.527Z,14.40
2019-02-20T03:21:11.327Z,12.27
2019-02-20T03:23:43.288Z,14.03
2019-02-20T03:26:15.125Z,10.97
2019-02-20T03:28:47.120Z,11.17
2019-02-20T03:31:19.353Z,13.97
2019-02-20T03:34:11.679Z,11.57
2019-02-20T03:36:43.596Z,13.47
2019-02-20T03:39:15.564Z,11.27
2019-02-20T03:41:48.959Z,12.27
2019-02-20T03:44:21.119Z,14.17
2019-02-20T03:46:53.270Z,12.47
2019-02-20T03:49:25.063Z,14.67
2019-02-20T03:51:56.864Z,13.23
2019-02-20T03:54:28.633Z,10.60
2019-02-20T03:57:00.568Z,14.97
2019-02-20T03:59:32.654Z,11.10
2019-02-20T04:02:04.596Z,12.83
2019-02-20T04:04:36.394Z,10.93
2019-02-20T04:07:08.379Z,9.83
2019-02-20T04:09:40.182Z,12.53
2019-02-20T04:12:12.045Z,13.00
2019-02-20T04:14:43.857Z,13.10
2019-02-20T04:17:15.900Z,12.77
2019-02-20T04:19:47.996Z,12.77
2019-02-20T04:22:19.803Z,11.97
2019-02-20T04:24:51.705Z,13.00
2019-02-20T04:27:23.540Z,10.03
2019-02-20T04:29:55.713Z,12.53
2019-02-20T04:32:27.726Z,10.70
2019-02-20T04:35:00.440Z,10.87
2019-02-20T04:37:32.278Z,9.67
2019-02-20T04:40:04.383Z,11.87
2019-02-20T04:42:36.125Z,9.30
2019-02-20T04:45:08.553Z,9.03
2019-02-20T04:47:40.787Z,11.83
2019-02-20T04:50:12.694Z,9.60
2019-02-20T04:52:44.440Z,10.40
2019-02-20T04:55:16.219Z,9.30
2019-02-20T04:57:48.006Z,10.20
2019-02-20T05:00:20.127Z,13.37
2019-02-20T05:02:52.190Z,12.33
2019-02-20T05:05:24.135Z,12.17
2019-02-20T05:07:56.085Z,9.67
2019-02-20T05:10:27.896Z,10.83
2019-02-20T05:12:59.665Z,11.40
2019-02-20T05:15:31.566Z,11.73
2019-02-20T16:55:25.085Z,5.53
2019-02-20T16:57:57.274Z,4.13
2019-02-20T17:00:29.574Z,3.53
2019-02-20T17:03:01.451Z,3.67
2019-02-20T17:05:33.394Z,2.50
2019-02-20T17:08:05.644Z,3.83
2019-02-20T17:10:37.458Z,3.63
2019-02-20T17:13:09.408Z,4.10
2019-02-20T17:15:41.376Z,3.33
2019-02-20T17:18:13.255Z,4.03
2019-02-20T17:20:45.162Z,4.20
2019-02-20T17:23:17.050Z,3.60
2019-02-20T17:25:48.963Z,3.20
2019-02-20T17:28:20.803Z,3.80
2019-02-20T17:30:53.125Z,4.50
2019-02-20T17:33:24.947Z,4.07
2019-02-20T17:35:56.906Z,3.37
2019-02-20T17:38:28.767Z,2.90
2019-02-20T17:41:00.723Z,4.03
2019-02-20T17:43:32.724Z,3.03
2019-02-20T17:46:04.857Z,2.70
2019-02-20T17:48:37.054Z,3.23
2019-02-20T17:51:09.094Z,3.60
2019-02-20T17:53:40.886Z,2.27
2019-02-20T17:56:13.038Z,4.67
2019-02-20T17:58:46.013Z,3.83
2019-02-20T18:01:19.132Z,4.40
2019-02-20T18:03:51.126Z,6.60
2019-02-20T18:06:22.924Z,8.50
2019-02-20T18:08:54.773Z,14.93
2019-02-20T18:11:26.716Z,7.20
2019-02-20T18:13:58.560Z,15.13
2019-02-20T18:16:30.686Z,10.57
2019-02-20T18:19:02.500Z,8.97
2019-02-20T18:21:34.400Z,10.87
2019-02-20T18:24:07.484Z,14.23
2019-02-20T18:26:39.262Z,4.43
2019-02-20T18:29:11.098Z,6.90
2019-02-20T18:31:43.184Z,5.90
2019-02-20T18:34:15.064Z,5.00
2019-02-20T18:36:46.862Z,5.23
2019-02-20T18:39:18.700Z,4.90
2019-02-20T18:41:50.496Z,3.97
2019-02-20T18:44:22.461Z,4.33
2019-02-20T18:46:56.582Z,3.60
2019-02-20T18:49:28.106Z,2.40
2019-02-20T18:51:59.984Z,4.43
2019-02-20T18:54:31.964Z,3.40
2019-02-20T18:57:04.080Z,3.73
2019-02-20T18:59:36.605Z,3.20
2019-02-20T19:02:09.507Z,3.57
2019-02-20T19:04:42.263Z,3.70
2019-02-20T19:07:15.839Z,6.03
2019-02-20T19:09:51.018Z,4.57
2019-02-20T19:13:40.843Z,8.30
2019-02-20T19:17:17.210Z,5.10
2019-02-20T19:20:51.185Z,4.93
2019-02-20T19:24:22.581Z,7.00
2019-02-20T19:27:09.723Z,4.43
2019-02-20T19:30:25.813Z,5.17
2019-02-20T19:33:58.052Z,4.07
2019-02-20T19:37:05.309Z,5.37
2019-02-20T19:40:08.971Z,3.77
2019-02-20T19:43:48.821Z,3.67
2019-02-20T19:47:22.998Z,5.60
2019-02-20T19:50:37.532Z,3.90
2019-02-20T19:54:06.308Z,3.80
2019-02-20T19:57:27.875Z,3.63
2019-02-20T20:00:55.333Z,5.60
2019-02-20T20:04:07.172Z,5.37
2019-02-20T20:07:27.105Z,5.10
2019-02-20T20:10:21.050Z,4.93
2019-02-20T20:13:52.639Z,5.63
2019-02-20T20:17:10.172Z,5.40
2019-02-20T20:20:50.429Z,5.77
2019-02-20T20:24:23.889Z,12.17
2019-02-20T20:27:44.822Z,15.53
2019-02-20T20:31:13.709Z,16.70
2019-02-20T20:34:50.002Z,12.37
2019-02-20T20:38:13.933Z,5.83
2019-02-20T20:41:55.889Z,5.57
2019-02-20T20:45:33.606Z,5.20
2019-02-20T20:48:58.064Z,6.30
2019-02-20T20:52:16.132Z,4.83
2019-02-20T20:55:54.764Z,6.40
2019-02-20T20:59:18.222Z,5.63
2019-02-20T21:02:11.794Z,6.40
2019-02-20T21:05:41.514Z,6.27
2019-02-20T21:08:41.735Z,7.03
2019-02-20T21:12:18.799Z,9.10
2019-02-20T21:15:32.653Z,6.37
2019-02-20T21:19:21.870Z,6.27
2019-02-20T21:22:47.446Z,11.23
2019-02-20T21:26:14.363Z,6.43
2019-02-20T21:29:55.853Z,6.67
2019-02-20T21:33:41.701Z,5.53
2019-02-20T21:36:39.808Z,5.77
2019-02-20T21:39:55.664Z,6.00
2019-02-20T21:43:24.693Z,5.80
2019-02-20T21:46:48.296Z,6.67
2019-02-20T21:50:09.990Z,7.10
2019-02-20T21:54:02.673Z,7.50
2019-02-20T21:57:48.381Z,7.67
2019-02-20T22:00:40.091Z,7.93
2019-02-20T22:04:15.250Z,6.03
2019-02-20T22:08:00.979Z,6.10
2019-02-20T22:11:39.234Z,6.43
2019-02-20T22:14:59.003Z,5.33
2019-02-20T22:18:24.957Z,6.57
2019-02-20T22:21:51.164Z,4.87
2019-02-20T22:25:06.867Z,4.20
2019-02-20T22:28:51.322Z,5.13
2019-02-20T22:31:51.299Z,4.50
2019-02-20T22:35:05.918Z,5.47
2019-02-20T22:38:29.353Z,4.40
2019-02-20T22:41:51.101Z,5.10
2019-02-20T22:45:20.399Z,4.73
2019-02-20T22:48:39.842Z,4.43
2019-02-20T22:52:23.332Z,4.70
2019-02-20T22:55:59.291Z,4.67
2019-02-20T22:59:18.009Z,4.57
2019-02-20T23:02:51.511Z,4.47
2019-02-20T23:06:25.893Z,4.57
2019-02-20T23:09:59.876Z,3.80
2019-02-20T23:13:30.164Z,3.80
2019-02-20T23:16:01.940Z,3.70
2019-02-20T23:18:33.784Z,3.87
2019-02-20T23:21:05.608Z,3.80
2019-02-20T23:23:37.350Z,4.20
2019-02-20T23:26:09.370Z,3.83
2019-02-20T23:28:41.177Z,3.50
2019-02-20T23:31:12.995Z,3.30
2019-02-20T23:33:44.792Z,3.57
2019-02-20T23:36:16.608Z,3.33
2019-02-20T23:38:48.392Z,3.10
2019-02-20T23:41:20.164Z,3.73
2019-02-20T23:43:51.919Z,3.17
2019-02-20T23:46:23.684Z,3.40
2019-02-20T23:48:55.509Z,3.73
2019-02-20T23:51:27.302Z,3.90
2019-02-20T23:53:59.144Z,4.30
2019-02-20T23:56:32.081Z,4.50
2019-02-20T23:59:03.946Z,5.13
